sensor_id;sensor_type;location;lat;lon;timestamp;P1;durP1;ratioP1;P2;durP2;ratioP2
17566;SDS011;8901;52.088;5.084;2022-07-29T00:00:29;4.20;;;4.00;;
17566;SDS011;8901;52.088;5.084;2022-07-29T00:02:56;4.83;;;4.40;;
17566;SDS011;8901;52.088;5.084;2022-07-29T00:05:24;7.53;;;4.63;;
17566;SDS011;8901;52.088;5.084;2022-07-29T00:07:51;5.60;;;4.30;;
17566;SDS011;8901;52.088;5.084;2022-07-29T00:10:18;4.27;;;3.87;;
17566;SDS011;8901;52.088;5.084;2022-07-29T00:12:45;5.67;;;4.37;;
17566;SDS011;8901;52.088;5.084;2022-07-29T00:15:12;4.43;;;4.10;;
17566;SDS011;8901;52.088;5.084;2022-07-29T00:17:40;4.90;;;3.90;;
17566;SDS011;8901;52.088;5.084;2022-07-29T00:20:07;4.43;;;4.03;;
17566;SDS011;8901;52.088;5.084;2022-07-29T00:22:37;4.87;;;4.13;;
17566;SDS011;8901;52.088;5.084;2022-07-29T00:25:05;4.87;;;4.40;;
17566;SDS011;8901;52.088;5.084;2022-07-29T00:27:33;5.13;;;4.30;;
17566;SDS011;8901;52.088;5.084;2022-07-29T00:30:01;4.60;;;4.20;;
17566;SDS011;8901;52.088;5.084;2022-07-29T00:32:28;4.80;;;4.40;;
17566;SDS011;8901;52.088;5.084;2022-07-29T00:34:55;4.73;;;4.40;;
17566;SDS011;8901;52.088;5.084;2022-07-29T00:37:40;5.37;;;4.30;;
17566;SDS011;8901;52.088;5.084;2022-07-29T00:40:08;5.00;;;4.50;;
17566;SDS011;8901;52.088;5.084;2022-07-29T00:42:41;4.67;;;4.10;;
17566;SDS011;8901;52.088;5.084;2022-07-29T00:45:09;4.43;;;3.93;;
17566;SDS011;8901;52.088;5.084;2022-07-29T00:47:36;4.90;;;4.50;;
17566;SDS011;8901;52.088;5.084;2022-07-29T00:50:04;4.73;;;4.13;;
17566;SDS011;8901;52.088;5.084;2022-07-29T00:52:32;4.57;;;4.20;;
17566;SDS011;8901;52.088;5.084;2022-07-29T00:55:01;4.63;;;4.23;;
17566;SDS011;8901;52.088;5.084;2022-07-29T00:57:29;4.47;;;4.07;;
17566;SDS011;8901;52.088;5.084;2022-07-29T00:59:56;4.77;;;4.00;;
17566;SDS011;8901;52.088;5.084;2022-07-29T01:02:23;6.33;;;4.00;;
17566;SDS011;8901;52.088;5.084;2022-07-29T01:08:18;4.90;;;4.50;;
17566;SDS011;8901;52.088;5.084;2022-07-29T01:10:47;5.33;;;4.40;;
17566;SDS011;8901;52.088;5.084;2022-07-29T01:13:17;5.03;;;4.60;;
17566;SDS011;8901;52.088;5.084;2022-07-29T01:15:46;4.60;;;4.20;;
17566;SDS011;8901;52.088;5.084;2022-07-29T01:18:18;4.53;;;4.10;;
17566;SDS011;8901;52.088;5.084;2022-07-29T01:20:54;4.30;;;3.90;;
17566;SDS011;8901;52.088;5.084;2022-07-29T01:23:48;7.20;;;4.10;;
17566;SDS011;8901;52.088;5.084;2022-07-29T01:26:42;4.90;;;3.70;;
17566;SDS011;8901;52.088;5.084;2022-07-29T01:29:15;8.00;;;3.90;;
17566;SDS011;8901;52.088;5.084;2022-07-29T01:31:48;5.97;;;3.50;;
17566;SDS011;8901;52.088;5.084;2022-07-29T01:34:21;4.40;;;4.00;;
17566;SDS011;8901;52.088;5.084;2022-07-29T01:36:59;5.10;;;3.90;;
17566;SDS011;8901;52.088;5.084;2022-07-29T01:39:30;5.50;;;4.07;;
17566;SDS011;8901;52.088;5.084;2022-07-29T01:42:01;5.37;;;3.77;;
17566;SDS011;8901;52.088;5.084;2022-07-29T01:44:39;3.90;;;3.60;;
17566;SDS011;8901;52.088;5.084;2022-07-29T01:47:15;4.10;;;3.87;;
17566;SDS011;8901;52.088;5.084;2022-07-29T01:49:47;6.53;;;4.20;;
17566;SDS011;8901;52.088;5.084;2022-07-29T01:52:19;4.87;;;3.90;;
17566;SDS011;8901;52.088;5.084;2022-07-29T01:54:51;4.23;;;3.83;;
17566;SDS011;8901;52.088;5.084;2022-07-29T01:57:22;4.70;;;4.00;;
17566;SDS011;8901;52.088;5.084;2022-07-29T01:59:54;5.47;;;4.00;;
17566;SDS011;8901;52.088;5.084;2022-07-29T02:02:23;4.93;;;4.00;;
17566;SDS011;8901;52.088;5.084;2022-07-29T02:04:52;4.53;;;3.87;;
17566;SDS011;8901;52.088;5.084;2022-07-29T02:07:21;5.43;;;3.83;;
17566;SDS011;8901;52.088;5.084;2022-07-29T02:09:49;3.90;;;3.60;;
17566;SDS011;8901;52.088;5.084;2022-07-29T02:12:18;6.33;;;3.80;;
17566;SDS011;8901;52.088;5.084;2022-07-29T02:14:47;5.27;;;3.70;;
17566;SDS011;8901;52.088;5.084;2022-07-29T02:17:20;4.20;;;3.90;;
17566;SDS011;8901;52.088;5.084;2022-07-29T02:19:49;4.00;;;3.70;;
17566;SDS011;8901;52.088;5.084;2022-07-29T02:22:17;4.50;;;4.10;;
17566;SDS011;8901;52.088;5.084;2022-07-29T02:24:46;4.67;;;4.27;;
17566;SDS011;8901;52.088;5.084;2022-07-29T02:27:14;4.40;;;4.00;;
17566;SDS011;8901;52.088;5.084;2022-07-29T02:29:44;4.17;;;3.67;;
17566;SDS011;8901;52.088;5.084;2022-07-29T02:32:13;5.47;;;3.93;;
17566;SDS011;8901;52.088;5.084;2022-07-29T02:34:43;4.87;;;4.17;;
17566;SDS011;8901;52.088;5.084;2022-07-29T02:37:12;5.20;;;4.20;;
17566;SDS011;8901;52.088;5.084;2022-07-29T02:39:42;4.30;;;3.90;;
17566;SDS011;8901;52.088;5.084;2022-07-29T02:42:11;7.20;;;3.87;;
17566;SDS011;8901;52.088;5.084;2022-07-29T02:44:41;6.77;;;3.50;;
17566;SDS011;8901;52.088;5.084;2022-07-29T02:47:10;4.27;;;3.30;;
17566;SDS011;8901;52.088;5.084;2022-07-29T02:49:47;5.37;;;3.60;;
17566;SDS011;8901;52.088;5.084;2022-07-29T02:52:21;3.90;;;3.30;;
17566;SDS011;8901;52.088;5.084;2022-07-29T02:54:53;4.90;;;3.30;;
17566;SDS011;8901;52.088;5.084;2022-07-29T02:57:26;5.63;;;3.40;;
17566;SDS011;8901;52.088;5.084;2022-07-29T02:59:59;4.90;;;3.53;;
17566;SDS011;8901;52.088;5.084;2022-07-29T03:02:34;4.00;;;3.50;;
17566;SDS011;8901;52.088;5.084;2022-07-29T03:05:05;5.07;;;3.53;;
17566;SDS011;8901;52.088;5.084;2022-07-29T03:07:36;4.47;;;3.13;;
17566;SDS011;8901;52.088;5.084;2022-07-29T03:10:05;4.83;;;3.50;;
17566;SDS011;8901;52.088;5.084;2022-07-29T03:15:25;4.17;;;3.00;;
17566;SDS011;8901;52.088;5.084;2022-07-29T03:17:53;4.63;;;3.00;;
17566;SDS011;8901;52.088;5.084;2022-07-29T03:20:22;6.30;;;3.10;;
17566;SDS011;8901;52.088;5.084;2022-07-29T03:22:50;4.50;;;3.03;;
17566;SDS011;8901;52.088;5.084;2022-07-29T03:25:18;7.97;;;2.97;;
17566;SDS011;8901;52.088;5.084;2022-07-29T03:27:46;8.40;;;2.83;;
17566;SDS011;8901;52.088;5.084;2022-07-29T03:33:10;4.40;;;3.07;;
17566;SDS011;8901;52.088;5.084;2022-07-29T03:35:38;4.53;;;2.83;;
17566;SDS011;8901;52.088;5.084;2022-07-29T03:38:05;6.30;;;3.03;;
17566;SDS011;8901;52.088;5.084;2022-07-29T03:40:33;3.43;;;3.03;;
17566;SDS011;8901;52.088;5.084;2022-07-29T03:43:04;3.13;;;2.80;;
17566;SDS011;8901;52.088;5.084;2022-07-29T03:45:34;4.33;;;3.03;;
17566;SDS011;8901;52.088;5.084;2022-07-29T03:51:00;3.50;;;2.80;;
17566;SDS011;8901;52.088;5.084;2022-07-29T03:53:27;4.93;;;2.60;;
17566;SDS011;8901;52.088;5.084;2022-07-29T03:55:56;5.23;;;2.80;;
17566;SDS011;8901;52.088;5.084;2022-07-29T03:58:26;3.50;;;2.73;;
17566;SDS011;8901;52.088;5.084;2022-07-29T04:00:54;5.93;;;2.70;;
17566;SDS011;8901;52.088;5.084;2022-07-29T04:03:21;3.20;;;2.70;;
17566;SDS011;8901;52.088;5.084;2022-07-29T04:05:57;4.83;;;2.70;;
17566;SDS011;8901;52.088;5.084;2022-07-29T04:08:27;5.03;;;2.73;;
17566;SDS011;8901;52.088;5.084;2022-07-29T04:13:56;3.93;;;2.70;;
17566;SDS011;8901;52.088;5.084;2022-07-29T04:16:23;4.33;;;2.50;;
17566;SDS011;8901;52.088;5.084;2022-07-29T04:18:50;3.33;;;2.57;;
17566;SDS011;8901;52.088;5.084;2022-07-29T04:21:17;5.70;;;2.50;;
17566;SDS011;8901;52.088;5.084;2022-07-29T04:23:45;3.77;;;2.47;;
17566;SDS011;8901;52.088;5.084;2022-07-29T04:26:14;3.73;;;2.70;;
17566;SDS011;8901;52.088;5.084;2022-07-29T04:28:41;3.73;;;2.67;;
17566;SDS011;8901;52.088;5.084;2022-07-29T04:31:08;3.70;;;2.67;;
17566;SDS011;8901;52.088;5.084;2022-07-29T04:33:35;4.00;;;2.70;;
17566;SDS011;8901;52.088;5.084;2022-07-29T04:36:02;4.90;;;2.63;;
17566;SDS011;8901;52.088;5.084;2022-07-29T04:38:29;3.10;;;2.40;;
17566;SDS011;8901;52.088;5.084;2022-07-29T04:40:58;5.80;;;2.47;;
17566;SDS011;8901;52.088;5.084;2022-07-29T04:43:25;7.07;;;2.60;;
17566;SDS011;8901;52.088;5.084;2022-07-29T04:45:52;6.07;;;2.57;;
17566;SDS011;8901;52.088;5.084;2022-07-29T04:48:18;4.73;;;2.77;;
17566;SDS011;8901;52.088;5.084;2022-07-29T04:50:45;3.70;;;2.50;;
17566;SDS011;8901;52.088;5.084;2022-07-29T04:53:12;3.07;;;2.37;;
17566;SDS011;8901;52.088;5.084;2022-07-29T04:55:39;3.37;;;2.30;;
17566;SDS011;8901;52.088;5.084;2022-07-29T04:58:07;3.47;;;2.20;;
17566;SDS011;8901;52.088;5.084;2022-07-29T05:00:34;4.57;;;2.60;;
17566;SDS011;8901;52.088;5.084;2022-07-29T05:03:01;4.23;;;2.40;;
17566;SDS011;8901;52.088;5.084;2022-07-29T05:05:29;4.50;;;2.83;;
17566;SDS011;8901;52.088;5.084;2022-07-29T05:07:56;5.43;;;2.40;;
17566;SDS011;8901;52.088;5.084;2022-07-29T05:10:23;3.57;;;2.50;;
17566;SDS011;8901;52.088;5.084;2022-07-29T05:12:56;8.03;;;2.80;;
17566;SDS011;8901;52.088;5.084;2022-07-29T05:15:24;2.47;;;2.17;;
17566;SDS011;8901;52.088;5.084;2022-07-29T05:17:51;3.60;;;2.70;;
17566;SDS011;8901;52.088;5.084;2022-07-29T05:20:18;3.83;;;2.60;;
17566;SDS011;8901;52.088;5.084;2022-07-29T05:22:51;4.57;;;2.30;;
17566;SDS011;8901;52.088;5.084;2022-07-29T05:25:18;2.97;;;2.77;;
17566;SDS011;8901;52.088;5.084;2022-07-29T05:27:44;5.63;;;2.70;;
17566;SDS011;8901;52.088;5.084;2022-07-29T05:30:12;4.47;;;2.60;;
17566;SDS011;8901;52.088;5.084;2022-07-29T05:32:40;5.23;;;2.37;;
17566;SDS011;8901;52.088;5.084;2022-07-29T05:35:07;4.30;;;2.70;;
17566;SDS011;8901;52.088;5.084;2022-07-29T05:37:35;5.77;;;2.63;;
17566;SDS011;8901;52.088;5.084;2022-07-29T05:40:02;3.63;;;2.90;;
17566;SDS011;8901;52.088;5.084;2022-07-29T05:42:29;5.00;;;2.93;;
17566;SDS011;8901;52.088;5.084;2022-07-29T05:48:20;4.43;;;2.60;;
17566;SDS011;8901;52.088;5.084;2022-07-29T05:50:59;4.37;;;2.70;;
17566;SDS011;8901;52.088;5.084;2022-07-29T05:53:26;4.33;;;2.63;;
17566;SDS011;8901;52.088;5.084;2022-07-29T05:55:53;4.40;;;2.47;;
17566;SDS011;8901;52.088;5.084;2022-07-29T05:58:20;3.93;;;2.90;;
17566;SDS011;8901;52.088;5.084;2022-07-29T06:00:47;5.30;;;3.30;;
17566;SDS011;8901;52.088;5.084;2022-07-29T06:03:14;4.83;;;2.73;;
17566;SDS011;8901;52.088;5.084;2022-07-29T06:05:42;6.23;;;2.80;;
17566;SDS011;8901;52.088;5.084;2022-07-29T06:08:09;4.00;;;2.70;;
17566;SDS011;8901;52.088;5.084;2022-07-29T06:10:36;4.03;;;2.57;;
17566;SDS011;8901;52.088;5.084;2022-07-29T06:13:03;3.80;;;2.67;;
17566;SDS011;8901;52.088;5.084;2022-07-29T06:15:30;5.70;;;2.80;;
17566;SDS011;8901;52.088;5.084;2022-07-29T06:17:58;3.87;;;2.83;;
17566;SDS011;8901;52.088;5.084;2022-07-29T06:20:25;3.77;;;2.67;;
17566;SDS011;8901;52.088;5.084;2022-07-29T06:22:53;7.03;;;3.07;;
17566;SDS011;8901;52.088;5.084;2022-07-29T06:25:21;4.33;;;2.80;;
17566;SDS011;8901;52.088;5.084;2022-07-29T06:27:48;5.70;;;3.20;;
17566;SDS011;8901;52.088;5.084;2022-07-29T06:30:15;4.40;;;2.60;;
17566;SDS011;8901;52.088;5.084;2022-07-29T06:32:42;7.10;;;2.80;;
17566;SDS011;8901;52.088;5.084;2022-07-29T06:35:09;6.57;;;2.87;;
17566;SDS011;8901;52.088;5.084;2022-07-29T06:37:35;4.20;;;2.50;;
17566;SDS011;8901;52.088;5.084;2022-07-29T06:40:04;4.53;;;3.30;;
17566;SDS011;8901;52.088;5.084;2022-07-29T06:42:49;4.07;;;3.67;;
17566;SDS011;8901;52.088;5.084;2022-07-29T06:45:16;4.70;;;4.30;;
17566;SDS011;8901;52.088;5.084;2022-07-29T06:47:43;8.00;;;4.93;;
17566;SDS011;8901;52.088;5.084;2022-07-29T06:50:09;5.20;;;4.70;;
17566;SDS011;8901;52.088;5.084;2022-07-29T06:52:37;5.20;;;4.70;;
17566;SDS011;8901;52.088;5.084;2022-07-29T06:55:06;5.78;;;5.28;;
17566;SDS011;8901;52.088;5.084;2022-07-29T06:57:34;6.47;;;5.97;;
17566;SDS011;8901;52.088;5.084;2022-07-29T07:00:01;6.97;;;6.03;;
17566;SDS011;8901;52.088;5.084;2022-07-29T07:02:30;8.25;;;5.68;;
17566;SDS011;8901;52.088;5.084;2022-07-29T07:04:57;6.10;;;5.50;;
17566;SDS011;8901;52.088;5.084;2022-07-29T07:07:24;8.00;;;5.40;;
17566;SDS011;8901;52.088;5.084;2022-07-29T07:09:51;5.70;;;5.10;;
17566;SDS011;8901;52.088;5.084;2022-07-29T07:12:19;5.43;;;4.93;;
17566;SDS011;8901;52.088;5.084;2022-07-29T07:14:46;5.90;;;5.10;;
17566;SDS011;8901;52.088;5.084;2022-07-29T07:17:13;16.73;;;5.77;;
17566;SDS011;8901;52.088;5.084;2022-07-29T07:19:40;6.27;;;5.67;;
17566;SDS011;8901;52.088;5.084;2022-07-29T07:22:06;6.65;;;6.07;;
17566;SDS011;8901;52.088;5.084;2022-07-29T07:24:33;5.70;;;5.30;;
17566;SDS011;8901;52.088;5.084;2022-07-29T07:27:00;6.68;;;6.07;;
17566;SDS011;8901;52.088;5.084;2022-07-29T07:29:28;7.32;;;6.65;;
17566;SDS011;8901;52.088;5.084;2022-07-29T07:31:55;6.85;;;6.20;;
17566;SDS011;8901;52.088;5.084;2022-07-29T07:34:23;11.70;;;8.00;;
17566;SDS011;8901;52.088;5.084;2022-07-29T07:36:50;8.30;;;7.60;;
17566;SDS011;8901;52.088;5.084;2022-07-29T07:39:17;7.97;;;7.07;;
17566;SDS011;8901;52.088;5.084;2022-07-29T07:41:44;6.85;;;6.25;;
17566;SDS011;8901;52.088;5.084;2022-07-29T07:44:11;6.73;;;6.23;;
17566;SDS011;8901;52.088;5.084;2022-07-29T07:46:39;6.87;;;5.90;;
17566;SDS011;8901;52.088;5.084;2022-07-29T07:49:06;6.20;;;5.80;;
17566;SDS011;8901;52.088;5.084;2022-07-29T07:51:33;6.20;;;5.67;;
17566;SDS011;8901;52.088;5.084;2022-07-29T07:53:59;10.63;;;5.20;;
17566;SDS011;8901;52.088;5.084;2022-07-29T07:56:26;6.55;;;5.70;;
17566;SDS011;8901;52.088;5.084;2022-07-29T07:58:53;7.00;;;5.10;;
17566;SDS011;8901;52.088;5.084;2022-07-29T08:01:20;6.35;;;5.88;;
17566;SDS011;8901;52.088;5.084;2022-07-29T08:03:49;6.83;;;5.33;;
17566;SDS011;8901;52.088;5.084;2022-07-29T08:06:16;6.07;;;5.57;;
17566;SDS011;8901;52.088;5.084;2022-07-29T08:08:43;6.73;;;5.97;;
17566;SDS011;8901;52.088;5.084;2022-07-29T08:11:10;11.73;;;5.18;;
17566;SDS011;8901;52.088;5.084;2022-07-29T08:13:37;7.72;;;6.97;;
17566;SDS011;8901;52.088;5.084;2022-07-29T08:16:04;7.45;;;6.93;;
17566;SDS011;8901;52.088;5.084;2022-07-29T08:18:40;9.05;;;7.60;;
17566;SDS011;8901;52.088;5.084;2022-07-29T08:21:09;8.13;;;7.28;;
17566;SDS011;8901;52.088;5.084;2022-07-29T08:23:36;7.18;;;6.60;;
17566;SDS011;8901;52.088;5.084;2022-07-29T08:26:04;8.20;;;7.50;;
17566;SDS011;8901;52.088;5.084;2022-07-29T08:28:35;7.60;;;6.90;;
17566;SDS011;8901;52.088;5.084;2022-07-29T08:31:02;7.70;;;7.07;;
17566;SDS011;8901;52.088;5.084;2022-07-29T08:33:29;8.68;;;7.47;;
17566;SDS011;8901;52.088;5.084;2022-07-29T08:35:56;7.03;;;6.43;;
17566;SDS011;8901;52.088;5.084;2022-07-29T08:38:24;7.77;;;6.40;;
17566;SDS011;8901;52.088;5.084;2022-07-29T08:40:52;8.73;;;7.88;;
17566;SDS011;8901;52.088;5.084;2022-07-29T08:43:19;8.50;;;7.50;;
17566;SDS011;8901;52.088;5.084;2022-07-29T08:45:47;7.45;;;6.85;;
17566;SDS011;8901;52.088;5.084;2022-07-29T08:48:15;9.23;;;8.48;;
17566;SDS011;8901;52.088;5.084;2022-07-29T08:50:44;9.15;;;8.18;;
17566;SDS011;8901;52.088;5.084;2022-07-29T08:53:12;8.48;;;7.78;;
17566;SDS011;8901;52.088;5.084;2022-07-29T08:55:42;10.70;;;7.70;;
17566;SDS011;8901;52.088;5.084;2022-07-29T08:58:10;8.63;;;8.02;;
17566;SDS011;8901;52.088;5.084;2022-07-29T09:00:41;9.73;;;8.80;;
17566;SDS011;8901;52.088;5.084;2022-07-29T09:03:09;8.85;;;8.05;;
17566;SDS011;8901;52.088;5.084;2022-07-29T09:05:41;8.40;;;7.77;;
17566;SDS011;8901;52.088;5.084;2022-07-29T09:08:08;9.85;;;8.93;;
17566;SDS011;8901;52.088;5.084;2022-07-29T09:10:36;9.77;;;8.88;;
17566;SDS011;8901;52.088;5.084;2022-07-29T09:13:04;9.55;;;7.20;;
17566;SDS011;8901;52.088;5.084;2022-07-29T09:15:31;8.82;;;7.90;;
17566;SDS011;8901;52.088;5.084;2022-07-29T09:17:58;10.45;;;8.15;;
17566;SDS011;8901;52.088;5.084;2022-07-29T09:20:26;10.15;;;8.63;;
17566;SDS011;8901;52.088;5.084;2022-07-29T09:23:13;10.05;;;8.40;;
17566;SDS011;8901;52.088;5.084;2022-07-29T09:25:40;10.55;;;9.48;;
17566;SDS011;8901;52.088;5.084;2022-07-29T09:28:09;10.43;;;9.55;;
17566;SDS011;8901;52.088;5.084;2022-07-29T09:30:38;10.27;;;9.43;;
17566;SDS011;8901;52.088;5.084;2022-07-29T09:33:17;9.73;;;8.80;;
17566;SDS011;8901;52.088;5.084;2022-07-29T09:35:44;11.30;;;9.93;;
17566;SDS011;8901;52.088;5.084;2022-07-29T09:38:11;9.85;;;8.90;;
17566;SDS011;8901;52.088;5.084;2022-07-29T09:40:38;10.65;;;9.68;;
17566;SDS011;8901;52.088;5.084;2022-07-29T09:43:10;11.05;;;9.98;;
17566;SDS011;8901;52.088;5.084;2022-07-29T09:45:38;9.65;;;8.73;;
17566;SDS011;8901;52.088;5.084;2022-07-29T09:48:13;10.80;;;9.90;;
17566;SDS011;8901;52.088;5.084;2022-07-29T09:50:43;11.30;;;10.02;;
17566;SDS011;8901;52.088;5.084;2022-07-29T09:53:11;10.35;;;9.45;;
17566;SDS011;8901;52.088;5.084;2022-07-29T09:55:55;10.57;;;9.80;;
17566;SDS011;8901;52.088;5.084;2022-07-29T09:58:23;10.32;;;9.40;;
17566;SDS011;8901;52.088;5.084;2022-07-29T10:00:50;10.85;;;9.82;;
17566;SDS011;8901;52.088;5.084;2022-07-29T10:03:20;10.68;;;9.63;;
17566;SDS011;8901;52.088;5.084;2022-07-29T10:06:03;11.88;;;10.85;;
17566;SDS011;8901;52.088;5.084;2022-07-29T10:08:31;12.35;;;11.18;;
17566;SDS011;8901;52.088;5.084;2022-07-29T10:11:08;11.90;;;10.90;;
17566;SDS011;8901;52.088;5.084;2022-07-29T10:13:38;12.65;;;10.95;;
17566;SDS011;8901;52.088;5.084;2022-07-29T10:16:05;12.63;;;11.50;;
17566;SDS011;8901;52.088;5.084;2022-07-29T10:18:33;12.07;;;11.13;;
17566;SDS011;8901;52.088;5.084;2022-07-29T10:21:00;12.30;;;11.20;;
17566;SDS011;8901;52.088;5.084;2022-07-29T10:23:27;12.95;;;11.95;;
17566;SDS011;8901;52.088;5.084;2022-07-29T10:25:55;13.02;;;11.93;;
17566;SDS011;8901;52.088;5.084;2022-07-29T10:28:22;11.90;;;10.98;;
17566;SDS011;8901;52.088;5.084;2022-07-29T10:30:58;12.15;;;11.25;;
17566;SDS011;8901;52.088;5.084;2022-07-29T10:33:32;13.20;;;12.10;;
17566;SDS011;8901;52.088;5.084;2022-07-29T10:36:23;12.93;;;11.05;;
17566;SDS011;8901;52.088;5.084;2022-07-29T10:39:00;11.60;;;10.48;;
17566;SDS011;8901;52.088;5.084;2022-07-29T10:44:28;12.25;;;10.82;;
17566;SDS011;8901;52.088;5.084;2022-07-29T10:46:57;12.18;;;11.18;;
17566;SDS011;8901;52.088;5.084;2022-07-29T10:49:24;12.18;;;11.07;;
17566;SDS011;8901;52.088;5.084;2022-07-29T10:51:53;12.90;;;11.75;;
17566;SDS011;8901;52.088;5.084;2022-07-29T10:54:37;16.45;;;11.50;;
17566;SDS011;8901;52.088;5.084;2022-07-29T10:57:11;11.45;;;10.23;;
17566;SDS011;8901;52.088;5.084;2022-07-29T10:59:39;14.30;;;11.43;;
17566;SDS011;8901;52.088;5.084;2022-07-29T11:05:10;14.05;;;11.10;;
17566;SDS011;8901;52.088;5.084;2022-07-29T11:07:38;12.75;;;11.18;;
17566;SDS011;8901;52.088;5.084;2022-07-29T11:10:25;12.43;;;11.43;;
17566;SDS011;8901;52.088;5.084;2022-07-29T11:12:52;11.80;;;10.63;;
17566;SDS011;8901;52.088;5.084;2022-07-29T11:15:20;12.27;;;11.18;;
17566;SDS011;8901;52.088;5.084;2022-07-29T11:18:05;11.60;;;10.52;;
17566;SDS011;8901;52.088;5.084;2022-07-29T11:20:34;12.70;;;11.48;;
17566;SDS011;8901;52.088;5.084;2022-07-29T11:23:23;12.52;;;11.20;;
17566;SDS011;8901;52.088;5.084;2022-07-29T11:28:54;13.70;;;11.88;;
17566;SDS011;8901;52.088;5.084;2022-07-29T11:31:33;12.45;;;11.30;;
17566;SDS011;8901;52.088;5.084;2022-07-29T11:39:45;12.65;;;11.35;;
17566;SDS011;8901;52.088;5.084;2022-07-29T11:45:12;13.73;;;12.43;;
17566;SDS011;8901;52.088;5.084;2022-07-29T11:47:47;13.00;;;11.43;;
17566;SDS011;8901;52.088;5.084;2022-07-29T11:50:26;13.32;;;12.27;;
17566;SDS011;8901;52.088;5.084;2022-07-29T11:52:57;13.57;;;12.75;;
17566;SDS011;8901;52.088;5.084;2022-07-29T11:55:24;14.13;;;13.13;;
17566;SDS011;8901;52.088;5.084;2022-07-29T11:57:52;14.85;;;13.48;;
17566;SDS011;8901;52.088;5.084;2022-07-29T12:00:23;14.75;;;13.13;;
17566;SDS011;8901;52.088;5.084;2022-07-29T12:02:52;14.60;;;13.45;;
17566;SDS011;8901;52.088;5.084;2022-07-29T12:05:21;14.70;;;13.55;;
17566;SDS011;8901;52.088;5.084;2022-07-29T12:07:58;14.65;;;13.32;;
17566;SDS011;8901;52.088;5.084;2022-07-29T12:10:35;14.73;;;13.40;;
17566;SDS011;8901;52.088;5.084;2022-07-29T12:13:02;15.05;;;13.73;;
17566;SDS011;8901;52.088;5.084;2022-07-29T12:15:29;15.05;;;13.80;;
17566;SDS011;8901;52.088;5.084;2022-07-29T12:17:56;15.20;;;13.90;;
17566;SDS011;8901;52.088;5.084;2022-07-29T12:20:25;14.30;;;13.10;;
17566;SDS011;8901;52.088;5.084;2022-07-29T12:22:53;14.95;;;13.70;;
17566;SDS011;8901;52.088;5.084;2022-07-29T12:25:21;14.90;;;13.60;;
17566;SDS011;8901;52.088;5.084;2022-07-29T12:27:57;15.48;;;14.27;;
17566;SDS011;8901;52.088;5.084;2022-07-29T12:30:33;15.65;;;14.00;;
17566;SDS011;8901;52.088;5.084;2022-07-29T12:33:18;14.68;;;13.40;;
17566;SDS011;8901;52.088;5.084;2022-07-29T12:35:49;14.50;;;13.35;;
17566;SDS011;8901;52.088;5.084;2022-07-29T12:38:18;15.20;;;13.70;;
17566;SDS011;8901;52.088;5.084;2022-07-29T12:40:46;14.20;;;13.20;;
17566;SDS011;8901;52.088;5.084;2022-07-29T12:43:14;14.20;;;13.15;;
17566;SDS011;8901;52.088;5.084;2022-07-29T12:45:43;15.13;;;13.82;;
17566;SDS011;8901;52.088;5.084;2022-07-29T12:48:11;15.48;;;14.05;;
17566;SDS011;8901;52.088;5.084;2022-07-29T12:50:53;14.90;;;13.75;;
17566;SDS011;8901;52.088;5.084;2022-07-29T12:53:22;16.17;;;14.73;;
17566;SDS011;8901;52.088;5.084;2022-07-29T12:55:50;14.68;;;13.55;;
17566;SDS011;8901;52.088;5.084;2022-07-29T12:58:30;14.55;;;13.18;;
17566;SDS011;8901;52.088;5.084;2022-07-29T13:01:04;14.50;;;13.48;;
17566;SDS011;8901;52.088;5.084;2022-07-29T13:03:45;15.60;;;14.30;;
17566;SDS011;8901;52.088;5.084;2022-07-29T13:06:33;16.55;;;15.20;;
17566;SDS011;8901;52.088;5.084;2022-07-29T13:09:03;15.68;;;14.30;;
17566;SDS011;8901;52.088;5.084;2022-07-29T13:11:32;15.82;;;14.63;;
17566;SDS011;8901;52.088;5.084;2022-07-29T13:14:00;15.48;;;14.05;;
17566;SDS011;8901;52.088;5.084;2022-07-29T13:16:27;17.08;;;15.57;;
17566;SDS011;8901;52.088;5.084;2022-07-29T13:19:04;16.30;;;14.85;;
17566;SDS011;8901;52.088;5.084;2022-07-29T13:21:33;15.82;;;14.55;;
17566;SDS011;8901;52.088;5.084;2022-07-29T13:24:00;16.88;;;15.43;;
17566;SDS011;8901;52.088;5.084;2022-07-29T13:26:27;16.20;;;14.50;;
17566;SDS011;8901;52.088;5.084;2022-07-29T13:28:54;16.20;;;15.00;;
17566;SDS011;8901;52.088;5.084;2022-07-29T13:31:21;16.15;;;14.85;;
17566;SDS011;8901;52.088;5.084;2022-07-29T13:33:48;15.55;;;14.35;;
17566;SDS011;8901;52.088;5.084;2022-07-29T13:36:15;16.58;;;15.25;;
17566;SDS011;8901;52.088;5.084;2022-07-29T13:38:43;15.30;;;14.30;;
17566;SDS011;8901;52.088;5.084;2022-07-29T13:41:10;16.30;;;15.10;;
17566;SDS011;8901;52.088;5.084;2022-07-29T13:43:37;16.52;;;15.00;;
17566;SDS011;8901;52.088;5.084;2022-07-29T13:46:04;16.80;;;15.27;;
17566;SDS011;8901;52.088;5.084;2022-07-29T13:48:31;15.63;;;14.52;;
17566;SDS011;8901;52.088;5.084;2022-07-29T13:50:58;17.08;;;15.60;;
17566;SDS011;8901;52.088;5.084;2022-07-29T13:53:25;16.73;;;15.30;;
17566;SDS011;8901;52.088;5.084;2022-07-29T13:55:54;16.70;;;15.52;;
17566;SDS011;8901;52.088;5.084;2022-07-29T13:58:21;16.50;;;15.20;;
17566;SDS011;8901;52.088;5.084;2022-07-29T14:00:48;16.38;;;15.23;;
17566;SDS011;8901;52.088;5.084;2022-07-29T14:03:15;16.88;;;15.40;;
17566;SDS011;8901;52.088;5.084;2022-07-29T14:05:42;18.05;;;16.48;;
17566;SDS011;8901;52.088;5.084;2022-07-29T14:08:09;17.60;;;16.45;;
17566;SDS011;8901;52.088;5.084;2022-07-29T14:10:36;18.58;;;16.92;;
17566;SDS011;8901;52.088;5.084;2022-07-29T14:13:04;16.88;;;15.55;;
17566;SDS011;8901;52.088;5.084;2022-07-29T14:15:31;17.55;;;16.20;;
17566;SDS011;8901;52.088;5.084;2022-07-29T14:17:57;17.90;;;16.60;;
17566;SDS011;8901;52.088;5.084;2022-07-29T14:20:24;19.08;;;17.30;;
17566;SDS011;8901;52.088;5.084;2022-07-29T14:22:53;17.10;;;15.90;;
17566;SDS011;8901;52.088;5.084;2022-07-29T14:25:20;17.45;;;16.10;;
17566;SDS011;8901;52.088;5.084;2022-07-29T14:27:47;17.95;;;16.42;;
17566;SDS011;8901;52.088;5.084;2022-07-29T14:30:15;17.27;;;16.08;;
17566;SDS011;8901;52.088;5.084;2022-07-29T14:32:42;19.77;;;18.08;;
17566;SDS011;8901;52.088;5.084;2022-07-29T14:35:09;18.17;;;16.98;;
17566;SDS011;8901;52.088;5.084;2022-07-29T14:37:39;18.55;;;17.20;;
17566;SDS011;8901;52.088;5.084;2022-07-29T14:40:06;18.60;;;17.40;;
17566;SDS011;8901;52.088;5.084;2022-07-29T14:42:34;18.92;;;17.48;;
17566;SDS011;8901;52.088;5.084;2022-07-29T14:45:04;18.60;;;17.20;;
17566;SDS011;8901;52.088;5.084;2022-07-29T14:47:33;19.30;;;17.90;;
17566;SDS011;8901;52.088;5.084;2022-07-29T14:50:01;19.25;;;17.52;;
17566;SDS011;8901;52.088;5.084;2022-07-29T14:52:29;18.35;;;16.70;;
17566;SDS011;8901;52.088;5.084;2022-07-29T14:54:56;18.55;;;17.25;;
17566;SDS011;8901;52.088;5.084;2022-07-29T14:57:25;18.30;;;17.08;;
17566;SDS011;8901;52.088;5.084;2022-07-29T14:59:52;18.50;;;17.25;;
17566;SDS011;8901;52.088;5.084;2022-07-29T15:02:18;18.25;;;16.98;;
17566;SDS011;8901;52.088;5.084;2022-07-29T15:04:47;17.17;;;16.10;;
17566;SDS011;8901;52.088;5.084;2022-07-29T15:07:13;17.83;;;16.60;;
17566;SDS011;8901;52.088;5.084;2022-07-29T15:09:40;17.85;;;16.63;;
17566;SDS011;8901;52.088;5.084;2022-07-29T15:12:07;18.35;;;16.67;;
17566;SDS011;8901;52.088;5.084;2022-07-29T15:14:35;16.90;;;15.50;;
17566;SDS011;8901;52.088;5.084;2022-07-29T15:17:03;17.80;;;16.55;;
17566;SDS011;8901;52.088;5.084;2022-07-29T15:19:30;17.95;;;16.52;;
17566;SDS011;8901;52.088;5.084;2022-07-29T15:21:59;17.00;;;15.80;;
17566;SDS011;8901;52.088;5.084;2022-07-29T15:24:26;17.25;;;16.05;;
17566;SDS011;8901;52.088;5.084;2022-07-29T15:26:55;17.80;;;16.38;;
17566;SDS011;8901;52.088;5.084;2022-07-29T15:29:22;18.17;;;16.67;;
17566;SDS011;8901;52.088;5.084;2022-07-29T15:31:49;17.58;;;16.35;;
17566;SDS011;8901;52.088;5.084;2022-07-29T15:34:27;18.17;;;16.85;;
17566;SDS011;8901;52.088;5.084;2022-07-29T15:36:53;17.42;;;16.33;;
17566;SDS011;8901;52.088;5.084;2022-07-29T15:39:22;18.75;;;17.52;;